Time;durP1;ratioP1;P1;durP2;ratioP2;P2;SDS_P1;SDS_P2;PMS_P1;PMS_P2;Temp;Humidity;BMP_temperature;BMP_pressure;BME280_temperature;BME280_humidity;BME280_pressure;Samples;Min_cycle;Max_cycle;Signal;HPM_P1;HPM_P2
2022/11/15 00:01:18;;;;;;;30.45;17.38;;;8.40;95.50;;;;;;4965607;28;20057;-76
2022/11/15 00:04:04;;;;;;;34.95;18.25;;;8.40;95.30;;;;;;4967647;28;20045;-76
2022/11/15 00:06:48;;;;;;;32.83;17.63;;;8.40;95.40;;;;;;4970448;28;20042;-79
2022/11/15 00:09:32;;;;;;;35.58;18.63;;;8.40;95.30;;;;;;4971706;28;20100;-79
2022/11/15 00:12:17;;;;;;;30.67;16.77;;;8.40;95.40;;;;;;4973515;28;20751;-79
2022/11/15 00:15:01;;;;;;;27.67;15.93;;;8.40;95.40;;;;;;4970007;28;20049;-78
2022/11/15 00:17:49;;;;;;;32.75;18.55;;;8.40;95.30;;;;;;4967909;28;20049;-79
2022/11/15 00:20:34;;;;;;;30.63;17.35;;;8.40;95.40;;;;;;4974819;28;20118;-79
2022/11/15 00:23:19;;;;;;;34.88;17.63;;;8.30;95.30;;;;;;4973118;28;20050;-79
2022/11/15 00:26:03;;;;;;;26.77;15.70;;;8.30;95.30;;;;;;4970558;28;20105;-78
2022/11/15 00:28:48;;;;;;;30.95;17.30;;;8.30;95.40;;;;;;4971216;28;20505;-79
2022/11/15 00:31:32;;;;;;;30.83;17.48;;;8.20;95.40;;;;;;4976086;28;20045;-79
2022/11/15 00:34:16;;;;;;;34.28;17.58;;;8.20;95.40;;;;;;4968106;28;20918;-79
2022/11/15 00:37:00;;;;;;;31.88;17.77;;;8.20;95.50;;;;;;4972151;28;20042;-78
2022/11/15 00:39:45;;;;;;;30.98;16.92;;;8.20;95.50;;;;;;4975429;28;20162;-80
2022/11/15 00:42:29;;;;;;;33.75;18.40;;;8.20;95.50;;;;;;4974252;28;20125;-79
2022/11/15 00:45:13;;;;;;;32.50;17.17;;;8.20;95.60;;;;;;4968676;28;20093;-78
2022/11/15 00:47:57;;;;;;;30.33;17.75;;;8.10;95.50;;;;;;4971139;28;20588;-79
2022/11/15 00:50:41;;;;;;;32.10;17.58;;;8.10;95.60;;;;;;4966249;28;20069;-79
2022/11/15 00:53:26;;;;;;;32.63;17.15;;;8.10;95.60;;;;;;4966897;28;20054;-78
2022/11/15 00:56:10;;;;;;;34.72;19.75;;;8.10;95.60;;;;;;4964950;28;20077;-79
2022/11/15 00:58:54;;;;;;;38.60;18.58;;;8.10;95.70;;;;;;4966351;28;20169;-79
2022/11/15 01:01:38;;;;;;;31.40;16.77;;;8.10;95.90;;;;;;4966918;28;20088;-79
2022/11/15 01:04:22;;;;;;;31.23;16.38;;;8.10;95.80;;;;;;4971066;28;20090;-78
2022/11/15 01:07:07;;;;;;;34.85;19.10;;;8.10;95.80;;;;;;4964516;28;20057;-79
2022/11/15 01:09:51;;;;;;;33.33;17.00;;;8.10;95.90;;;;;;4964148;28;20889;-79
2022/11/15 01:12:36;;;;;;;32.08;16.58;;;8.10;96.00;;;;;;4964252;28;20077;-79
2022/11/15 01:15:20;;;;;;;29.73;16.45;;;8.10;96.00;;;;;;4962619;28;20514;-78
2022/11/15 01:18:04;;;;;;;31.00;17.40;;;8.10;95.80;;;;;;4974018;28;20045;-78
2022/11/15 01:20:49;;;;;;;32.95;16.50;;;8.10;95.80;;;;;;4968529;28;20092;-78
2022/11/15 01:23:33;;;;;;;31.05;16.35;;;8.10;95.80;;;;;;4962594;28;20855;-79
2022/11/15 01:26:18;;;;;;;29.95;16.30;;;8.10;95.80;;;;;;4970568;28;20050;-79
2022/11/15 01:29:02;;;;;;;33.30;17.08;;;8.00;95.70;;;;;;4967614;28;20054;-79
2022/11/15 01:31:47;;;;;;;30.45;16.75;;;8.10;95.80;;;;;;4960611;28;20048;-79
2022/11/15 01:34:31;;;;;;;32.13;17.45;;;8.00;95.70;;;;;;4970143;28;20053;-79
2022/11/15 01:37:15;;;;;;;30.67;16.80;;;8.00;95.70;;;;;;4962951;28;20050;-78
2022/11/15 01:39:59;;;;;;;31.73;16.42;;;8.00;95.80;;;;;;4966035;28;20074;-79
2022/11/15 01:42:43;;;;;;;30.27;17.05;;;8.00;95.90;;;;;;4964515;28;20884;-79
2022/11/15 01:45:27;;;;;;;30.33;16.45;;;8.00;95.90;;;;;;4972631;28;20262;-78
2022/11/15 01:48:12;;;;;;;32.83;19.00;;;8.10;96.00;;;;;;4967085;28;20605;-79
2022/11/15 01:50:57;;;;;;;30.15;16.45;;;8.10;96.00;;;;;;4961873;28;20053;-79
2022/11/15 01:53:45;;;;;;;34.00;17.63;;;8.10;96.00;;;;;;4966672;28;20081;-79
2022/11/15 01:56:35;;;;;;;34.30;17.52;;;8.10;96.10;;;;;;4970399;28;20049;-78
2022/11/15 01:59:21;;;;;;;31.17;16.38;;;8.10;95.80;;;;;;4963093;28;20112;-79
2022/11/15 02:02:05;;;;;;;30.55;17.02;;;8.10;95.70;;;;;;4961002;28;20094;-79
2022/11/15 02:04:50;;;;;;;30.83;16.15;;;8.10;95.90;;;;;;4962419;28;20418;-78
2022/11/15 02:07:35;;;;;;;29.92;15.73;;;8.10;95.90;;;;;;4962754;28;20045;-79
2022/11/15 02:10:22;;;;;;;29.27;16.85;;;8.10;95.80;;;;;;4966073;28;20085;-78
2022/11/15 02:13:06;;;;;;;;;;;8.10;95.90;;;;;;4959312;28;20093;-79
2022/11/15 02:16:31;;;;;;;27.17;14.75;;;8.10;95.90;;;;;;4962951;28;19992;-79
2022/11/15 02:19:19;;;;;;;29.08;14.45;;;8.10;95.70;;;;;;4959091;28;20713;-78
2022/11/15 02:22:33;;;;;;;29.00;15.75;;;8.10;95.80;;;;;;4960786;28;20070;-78
2022/11/15 02:25:51;;;;;;;26.35;14.23;;;8.10;95.90;;;;;;4961162;28;20068;-79
2022/11/15 02:28:54;;;;;;;28.83;15.65;;;8.00;95.90;;;;;;4961396;28;20132;-78
2022/11/15 02:32:11;;;;;;;26.00;13.88;;;8.00;95.90;;;;;;4958670;28;20081;-79
2022/11/15 02:35:06;;;;;;;29.10;15.15;;;8.00;95.90;;;;;;4961736;28;20285;-78
2022/11/15 02:38:04;;;;;;;29.35;15.40;;;8.00;96.10;;;;;;4964473;28;20246;-78
2022/11/15 02:40:57;;;;;;;30.17;16.90;;;8.00;96.10;;;;;;4954522;28;20093;-78
2022/11/15 02:44:24;;;;;;;27.90;14.20;;;8.00;96.10;;;;;;4961213;28;20050;-79
2022/11/15 02:47:14;;;;;;;27.05;15.13;;;8.00;96.00;;;;;;4900542;29;20167;-78
2022/11/15 02:50:03;;;;;;;28.05;15.55;;;8.00;96.00;;;;;;4901332;29;20090;-78
2022/11/15 02:52:51;;;;;;;29.25;15.57;;;8.00;96.10;;;;;;4961538;28;20756;-78
2022/11/15 02:55:41;;;;;;;28.13;13.93;;;8.00;96.10;;;;;;4961994;28;20094;-79
2022/11/15 02:58:47;;;;;;;27.40;14.85;;;8.00;96.00;;;;;;4961690;28;20117;-79
2022/11/15 03:01:31;;;;;;;27.42;14.88;;;8.00;96.10;;;;;;4962219;28;20092;-78
2022/11/15 03:04:27;;;;;;;29.05;15.05;;;8.00;96.10;;;;;;4960753;28;20095;-78
2022/11/15 03:07:37;;;;;;;29.47;16.03;;;8.00;95.90;;;;;;4961235;28;20545;-79
2022/11/15 03:11:03;;;;;;;27.33;13.55;;;8.00;95.90;;;;;;4927446;28;20111;-79
2022/11/15 03:13:58;;;;;;;22.83;13.07;;;8.00;95.90;;;;;;4960585;28;20171;-78
2022/11/15 03:17:00;;;;;;;27.65;14.88;;;8.00;95.90;;;;;;4963477;28;20045;-78
2022/11/15 03:19:48;;;;;;;29.13;14.60;;;8.00;96.00;;;;;;4965192;28;20074;-79
2022/11/15 03:22:40;;;;;;;29.83;15.60;;;8.00;96.00;;;;;;4965714;28;20525;-79
2022/11/15 03:25:27;;;;;;;29.15;15.05;;;8.00;96.00;;;;;;4963166;28;20085;-79
2022/11/15 03:28:18;;;;;;;29.30;15.82;;;8.00;96.20;;;;;;4960027;28;20144;-79
2022/11/15 03:31:46;;;;;;;28.27;15.15;;;8.00;96.10;;;;;;4961307;28;20502;-79
2022/11/15 03:34:12;;;;;;;29.38;15.48;;;8.00;96.10;;;;;;4961946;28;20053;-78
2022/11/15 03:36:56;;;;;;;33.35;15.93;;;8.00;96.10;;;;;;4962550;28;20174;-79
2022/11/15 03:39:42;;;;;;;27.88;14.32;;;8.00;96.00;;;;;;4964082;28;20050;-79
2022/11/15 03:42:30;;;;;;;28.53;14.83;;;8.00;95.90;;;;;;4963483;28;20097;-79
2022/11/15 03:45:23;;;;;;;27.10;14.00;;;8.10;96.00;;;;;;4960154;28;20793;-79
2022/11/15 03:48:39;;;;;;;24.85;13.43;;;8.10;96.00;;;;;;4961455;28;20050;-79
2022/11/15 03:51:24;;;;;;;28.13;14.43;;;8.00;96.00;;;;;;4962145;28;20092;-79
2022/11/15 03:54:09;;;;;;;24.52;13.63;;;8.00;96.00;;;;;;4964347;28;20475;-79
2022/11/15 03:56:53;;;;;;;24.08;12.98;;;8.00;96.00;;;;;;4966156;28;20054;-79
2022/11/15 03:59:37;;;;;;;24.27;13.48;;;8.00;95.90;;;;;;4961291;28;20054;-80
2022/11/15 04:02:21;;;;;;;24.73;13.63;;;8.00;95.80;;;;;;4963019;28;20074;-79
2022/11/15 04:05:06;;;;;;;25.85;12.75;;;8.00;95.70;;;;;;4968672;28;20048;-78
2022/11/15 04:07:50;;;;;;;26.20;13.02;;;8.00;95.80;;;;;;4972483;28;20226;-79
2022/11/15 04:10:35;;;;;;;24.27;12.63;;;7.90;95.90;;;;;;4966902;28;20057;-79
2022/11/15 04:13:19;;;;;;;22.38;12.48;;;7.90;96.10;;;;;;4963503;28;20113;-79
2022/11/15 04:16:04;;;;;;;22.58;12.48;;;7.90;96.30;;;;;;4961152;28;20109;-78
2022/11/15 04:24:11;;;;;;;24.10;12.52;;;7.90;96.40;;;;;;4963567;28;20258;-79
2022/11/15 04:24:56;;;;;;;22.73;11.38;;;7.80;96.50;;;;;;4959019;28;20117;-79
2022/11/15 04:27:40;;;;;;;24.95;12.55;;;7.90;96.60;;;;;;4967547;28;20069;-78
2022/11/15 04:30:24;;;;;;;24.02;12.18;;;7.90;96.50;;;;;;4975058;28;20485;-79
2022/11/15 04:33:09;;;;;;;27.20;14.32;;;7.90;96.60;;;;;;4968838;28;20407;-78
2022/11/15 04:38:56;;;;;;;30.63;14.13;;;8.00;96.60;;;;;;4960824;28;20077;-78
2022/11/15 04:41:40;;;;;;;25.80;13.68;;;8.00;96.60;;;;;;4964951;28;20122;-79
2022/11/15 04:44:24;;;;;;;29.00;14.45;;;8.00;96.40;;;;;;4966372;28;20089;-78
2022/11/15 04:47:09;;;;;;;27.52;14.27;;;8.00;96.30;;;;;;4967866;28;20046;-78
2022/11/15 04:49:53;;;;;;;26.48;14.10;;;8.00;96.30;;;;;;4973873;28;20046;-78
2022/11/15 04:52:37;;;;;;;24.02;12.93;;;8.00;96.30;;;;;;4962606;28;20414;-78
2022/11/15 04:55:21;;;;;;;24.38;12.77;;;8.00;96.20;;;;;;4970763;28;20053;-79
2022/11/15 04:58:05;;;;;;;21.25;12.40;;;8.00;96.10;;;;;;4965950;28;20057;-79
2022/11/15 05:00:50;;;;;;;23.15;13.80;;;8.00;95.90;;;;;;4965321;28;20053;-79
2022/11/15 05:06:38;;;;;;;27.80;13.77;;;8.00;96.00;;;;;;4969762;28;20313;-79
2022/11/15 05:09:22;;;;;;;27.23;14.65;;;8.00;96.00;;;;;;4970729;28;20777;-79
2022/11/15 05:12:07;;;;;;;27.88;14.70;;;7.90;96.10;;;;;;4968056;28;20049;-79
2022/11/15 05:14:51;;;;;;;22.83;13.38;;;7.90;96.40;;;;;;4960751;28;20173;-79
2022/11/15 05:17:35;;;;;;;24.80;13.07;;;7.90;96.30;;;;;;4967266;28;20103;-79
2022/11/15 05:20:19;;;;;;;24.23;13.57;;;8.00;96.20;;;;;;4964234;28;20121;-79
2022/11/15 05:23:03;;;;;;;27.98;14.57;;;7.90;96.10;;;;;;4963408;28;20082;-79
2022/11/15 05:25:47;;;;;;;25.20;13.82;;;7.90;96.10;;;;;;4967994;28;20050;-80
2022/11/15 05:28:32;;;;;;;25.75;13.85;;;7.90;96.00;;;;;;4970938;28;20096;-79
2022/11/15 05:31:17;;;;;;;21.83;12.38;;;7.90;96.20;;;;;;4969974;28;20129;-79
2022/11/15 05:34:04;;;;;;;22.38;12.40;;;7.90;96.10;;;;;;4963628;28;20046;-79
2022/11/15 05:36:49;;;;;;;24.63;12.95;;;7.90;96.00;;;;;;4961191;28;20182;-79
2022/11/15 05:39:33;;;;;;;25.23;13.05;;;7.90;96.10;;;;;;4966717;28;20100;-79
2022/11/15 05:42:17;;;;;;;25.27;13.70;;;7.90;96.00;;;;;;4973896;28;20415;-79
2022/11/15 05:45:05;;;;;;;26.70;14.32;;;7.90;95.80;;;;;;4973388;28;20041;-79
2022/11/15 05:47:50;;;;;;;21.20;12.70;;;7.80;95.80;;;;;;4970581;28;20517;-79
2022/11/15 05:50:38;;;;;;;24.60;12.23;;;7.90;95.70;;;;;;4964025;28;20105;-79
2022/11/15 05:53:24;;;;;;;23.58;13.30;;;7.80;95.60;;;;;;4963113;28;20050;-79
2022/11/15 05:56:09;;;;;;;27.88;14.25;;;7.80;95.80;;;;;;4966594;28;20807;-79
2022/11/15 05:58:56;;;;;;;24.08;13.55;;;7.70;96.00;;;;;;4965866;28;20076;-79
2022/11/15 06:01:40;;;;;;;;;;;7.70;96.30;;;;;;4966498;28;20157;-79
2022/11/15 06:04:25;;;;;;;28.00;13.05;;;7.70;95.90;;;;;;4962004;28;19924;-79
2022/11/15 06:07:09;;;;;;;28.35;14.85;;;7.70;95.90;;;;;;4977495;28;20045;-79
2022/11/15 06:09:53;;;;;;;23.30;12.93;;;7.70;96.00;;;;;;4969089;28;20120;-79
2022/11/15 06:12:37;;;;;;;28.00;14.57;;;7.70;96.10;;;;;;4971547;28;20045;-79
2022/11/15 06:15:21;;;;;;;28.83;14.57;;;7.70;96.10;;;;;;4971717;28;20053;-78
2022/11/15 06:18:05;;;;;;;25.98;14.13;;;7.70;96.50;;;;;;4955434;28;20050;-79
2022/11/15 06:20:50;;;;;;;27.85;14.65;;;7.70;96.40;;;;;;4967547;28;20045;-80
2022/11/15 06:23:35;;;;;;;28.88;15.15;;;7.60;96.40;;;;;;4959845;28;20513;-79
2022/11/15 06:26:19;;;;;;;31.85;15.48;;;7.60;96.40;;;;;;4961889;28;20108;-79
2022/11/15 06:29:04;;;;;;;28.73;15.40;;;7.70;96.50;;;;;;4961691;28;20052;-79
2022/11/15 06:31:48;;;;;;;25.70;14.55;;;7.70;96.30;;;;;;4962239;28;20049;-79
2022/11/15 06:34:32;;;;;;;27.05;13.95;;;7.70;96.10;;;;;;4962864;28;20072;-78
2022/11/15 06:37:16;;;;;;;24.45;13.65;;;7.70;96.00;;;;;;4957602;28;20592;-78
2022/11/15 06:40:01;;;;;;;28.00;14.27;;;7.60;96.00;;;;;;4961012;28;20529;-78
2022/11/15 06:42:46;;;;;;;29.23;14.95;;;7.60;96.10;;;;;;4960565;28;20873;-78
2022/11/15 06:45:30;;;;;;;24.02;12.55;;;7.60;96.30;;;;;;4960106;28;20041;-78
2022/11/15 06:48:15;;;;;;;29.45;16.42;;;7.60;96.40;;;;;;4951920;28;20049;-78
2022/11/15 06:51:01;;;;;;;28.90;14.52;;;7.60;96.60;;;;;;4967670;28;20050;-78
2022/11/15 06:53:45;;;;;;;26.00;13.48;;;7.70;96.40;;;;;;4955511;28;20155;-78
2022/11/15 06:56:30;;;;;;;26.67;13.88;;;7.60;96.40;;;;;;4956661;28;20089;-78
2022/11/15 06:59:15;;;;;;;27.20;13.82;;;7.70;96.30;;;;;;4956133;28;20054;-78
2022/11/15 07:01:59;;;;;;;25.17;13.63;;;7.70;96.30;;;;;;4956273;28;20100;-78
2022/11/15 07:04:43;;;;;;;29.38;15.75;;;7.70;96.30;;;;;;4959299;28;20077;-78
2022/11/15 07:07:27;;;;;;;27.33;14.35;;;7.70;96.40;;;;;;4959308;28;20163;-79
2022/11/15 07:10:11;;;;;;;25.13;14.65;;;7.70;96.60;;;;;;4961499;28;20058;-79
2022/11/15 07:12:56;;;;;;;25.95;13.10;;;7.70;96.70;;;;;;4961864;28;20068;-79
2022/11/15 07:15:40;;;;;;;29.27;13.60;;;7.80;96.70;;;;;;4955745;28;20078;-78
2022/11/15 07:18:24;;;;;;;26.13;13.45;;;7.80;96.70;;;;;;4965250;28;20062;-78
2022/11/15 07:21:10;;;;;;;23.40;13.55;;;7.90;96.60;;;;;;4964773;28;20048;-78
2022/11/15 07:23:55;;;;;;;32.08;15.48;;;7.90;96.60;;;;;;4957352;28;20085;-78
2022/11/15 07:26:39;;;;;;;26.25;13.77;;;8.00;96.60;;;;;;4962843;28;20185;-78
2022/11/15 07:29:24;;;;;;;26.25;14.57;;;8.00;96.50;;;;;;4968452;28;20054;-79
2022/11/15 07:32:09;;;;;;;26.42;13.73;;;8.10;96.50;;;;;;4959008;28;20433;-77
2022/11/15 07:34:54;;;;;;;24.15;12.45;;;8.10;96.80;;;;;;4960996;28;20061;-78
2022/11/15 07:37:38;;;;;;;25.73;13.00;;;8.20;96.60;;;;;;4964368;28;20060;-77
2022/11/15 07:40:22;;;;;;;25.42;12.98;;;8.30;96.60;;;;;;4969062;28;20097;-77
2022/11/15 07:43:08;;;;;;;23.13;12.77;;;8.30;96.60;;;;;;4962143;28;20049;-78
2022/11/15 07:45:53;;;;;;;22.45;12.48;;;8.40;96.50;;;;;;4961614;28;20044;-76
2022/11/15 07:48:39;;;;;;;19.52;11.70;;;8.50;96.50;;;;;;4951026;28;20935;-78
2022/11/15 07:51:24;;;;;;;22.30;12.20;;;8.60;96.50;;;;;;4960601;28;20085;-78
2022/11/15 07:54:09;;;;;;;23.42;13.00;;;8.70;96.40;;;;;;4965320;28;20089;-78
2022/11/15 07:56:53;;;;;;;21.67;12.27;;;8.70;96.30;;;;;;4966005;28;20089;-78
2022/11/15 07:59:37;;;;;;;24.20;13.15;;;8.80;96.20;;;;;;4961932;28;20081;-77
2022/11/15 08:02:21;;;;;;;24.58;12.60;;;8.90;96.10;;;;;;4964118;28;20203;-77
2022/11/15 08:05:06;;;;;;;22.80;12.23;;;9.00;96.20;;;;;;4965783;28;20493;-78
2022/11/15 08:07:50;;;;;;;23.10;12.32;;;9.10;96.00;;;;;;4965727;28;20041;-78
2022/11/15 08:10:35;;;;;;;24.42;13.23;;;9.30;95.70;;;;;;4963986;28;20066;-78
2022/11/15 08:13:21;;;;;;;23.98;12.75;;;9.40;95.60;;;;;;4964291;28;20050;-78
2022/11/15 08:16:05;;;;;;;25.02;12.13;;;9.50;95.40;;;;;;4962635;28;20050;-79
2022/11/15 08:18:50;;;;;;;20.75;12.18;;;9.60;95.00;;;;;;4971269;28;20050;-79
2022/11/15 08:21:35;;;;;;;23.33;12.02;;;9.70;94.90;;;;;;4966373;28;20053;-75
2022/11/15 08:24:20;;;;;;;19.00;10.80;;;9.80;94.60;;;;;;4965502;28;20153;-80
2022/11/15 08:27:05;;;;;;;19.97;11.30;;;9.90;94.50;;;;;;4971555;28;20604;-78
2022/11/15 08:29:50;;;;;;;19.50;11.93;;;10.00;94.30;;;;;;4961562;28;20042;-78
2022/11/15 08:32:34;;;;;;;18.80;10.45;;;10.20;94.00;;;;;;4964138;28;20073;-79
2022/11/15 08:35:20;;;;;;;17.80;10.20;;;10.30;93.70;;;;;;4964479;28;20086;-77
2022/11/15 08:38:04;;;;;;;17.37;10.30;;;10.50;93.70;;;;;;4964407;28;20053;-79
2022/11/15 08:40:51;;;;;;;17.70;10.43;;;10.80;93.20;;;;;;4966421;28;20118;-79
2022/11/15 08:43:36;;;;;;;17.27;10.10;;;11.10;92.60;;;;;;4964068;28;20557;-79
2022/11/15 08:46:20;;;;;;;18.63;10.43;;;11.10;92.30;;;;;;4967072;28;20065;-80
2022/11/15 08:49:04;;;;;;;18.30;10.95;;;11.20;91.60;;;;;;4964199;28;20046;-79
2022/11/15 08:51:48;;;;;;;18.02;10.60;;;11.40;91.40;;;;;;4965448;28;20072;-78
2022/11/15 08:54:32;;;;;;;16.90;10.68;;;11.50;91.60;;;;;;4963968;28;20129;-80
2022/11/15 08:57:17;;;;;;;15.07;9.30;;;11.70;91.30;;;;;;4966808;28;20050;-76
2022/11/15 09:00:01;;;;;;;14.68;9.38;;;12.30;90.60;;;;;;4962459;28;20053;-77
2022/11/15 09:02:46;;;;;;;14.23;8.90;;;13.60;85.80;;;;;;4966088;28;20041;-77
2022/11/15 09:05:30;;;;;;;19.52;9.05;;;15.20;79.50;;;;;;4964701;28;20454;-77
2022/11/15 09:08:14;;;;;;;17.48;9.68;;;16.60;74.00;;;;;;4964317;28;20050;-77
2022/11/15 09:10:58;;;;;;;15.05;9.48;;;17.50;69.80;;;;;;4966561;28;20054;-76
2022/11/15 09:13:42;;;;;;;15.45;9.65;;;17.60;65.90;;;;;;4963318;28;20066;-76
2022/11/15 09:16:27;;;;;;;14.27;8.82;;;17.90;64.60;;;;;;4963601;28;20054;-79
2022/11/15 09:19:11;;;;;;;15.27;8.90;;;18.40;62.80;;;;;;4965803;28;20052;-77
2022/11/15 09:21:55;;;;;;;10.45;7.55;;;18.90;61.00;;;;;;4962628;28;20045;-74
2022/11/15 09:24:40;;;;;;;15.73;9.55;;;19.80;58.80;;;;;;4960425;28;20050;-76
2022/11/15 09:27:28;;;;;;;11.25;7.95;;;20.60;56.40;;;;;;4961014;28;20067;-77
2022/11/15 09:30:13;;;;;;;13.20;8.82;;;21.10;54.60;;;;;;4963891;28;20045;-77
2022/11/15 09:32:57;;;;;;;14.13;9.30;;;21.40;53.10;;;;;;4961364;28;20093;-78
2022/11/15 09:35:42;;;;;;;11.38;8.07;;;21.10;52.50;;;;;;4964344;28;20069;-76
2022/11/15 09:38:26;;;;;;;12.15;7.93;;;21.20;52.50;;;;;;4968108;28;20053;-71
2022/11/15 09:41:22;;;;;;;11.85;8.20;;;21.70;51.70;;;;;;4962084;28;20128;-75
2022/11/15 09:44:16;;;;;;;12.13;8.37;;;22.00;50.60;;;;;;4961064;28;20085;-75
2022/11/15 09:47:19;;;;;;;13.95;7.85;;;22.00;49.90;;;;;;4964364;28;20317;-75
2022/11/15 09:50:31;;;;;;;11.68;8.05;;;22.00;50.20;;;;;;4948552;28;20031;-73
2022/11/15 09:52:57;;;;;;;13.25;8.30;;;22.50;48.90;;;;;;4961521;28;20114;-73
2022/11/15 09:55:34;;;;;;;10.63;7.43;;;22.80;48.40;;;;;;4963353;28;20437;-75
2022/11/15 09:58:29;;;;;;;11.35;7.55;;;22.90;48.90;;;;;;4962828;28;20031;-76
2022/11/15 10:01:00;;;;;;;11.15;7.78;;;22.40;49.80;;;;;;4946464;28;20074;-71
2022/11/15 10:03:37;;;;;;;12.10;7.80;;;22.00;51.00;;;;;;4961169;28;20035;-78
2022/11/15 10:06:05;;;;;;;12.15;7.85;;;22.20;50.50;;;;;;4959303;28;20037;-79
2022/11/15 10:09:01;;;;;;;13.30;8.30;;;22.70;48.80;;;;;;4966156;28;20118;-78
2022/11/15 10:11:32;;;;;;;10.25;7.45;;;23.40;47.00;;;;;;4961256;28;20038;-75
2022/11/15 10:14:02;;;;;;;11.98;7.35;;;23.20;47.60;;;;;;4963861;28;20073;-79
2022/11/15 10:16:28;;;;;;;14.60;8.00;;;22.60;49.00;;;;;;4965163;28;20125;-76
2022/11/15 10:19:30;;;;;;;12.38;7.93;;;22.30;49.40;;;;;;4962131;28;20061;-73
2022/11/15 10:22:14;;;;;;;10.48;6.88;;;22.20;49.40;;;;;;4957612;28;20070;-76
2022/11/15 10:24:42;;;;;;;10.90;6.93;;;21.80;50.30;;;;;;4954507;28;20035;-74
2022/11/15 10:27:15;;;;;;;13.05;7.20;;;21.60;50.60;;;;;;4965138;28;20066;-75
2022/11/15 10:29:48;;;;;;;9.48;7.15;;;21.60;51.00;;;;;;4964876;28;20472;-71
2022/11/15 10:32:20;;;;;;;8.85;6.72;;;21.80;50.80;;;;;;4963398;28;20034;-74
2022/11/15 10:34:47;;;;;;;10.57;6.82;;;22.30;50.00;;;;;;4962140;28;20031;-78
2022/11/15 10:37:13;;;;;;;9.65;7.07;;;22.80;48.00;;;;;;4962682;28;20037;-71
2022/11/15 10:39:39;;;;;;;9.70;6.50;;;23.40;47.30;;;;;;4959211;28;20030;-72
2022/11/15 10:42:27;;;;;;;11.25;6.68;;;24.50;45.20;;;;;;4962699;28;20490;-70
2022/11/15 10:44:53;;;;;;;8.63;6.40;;;25.20;43.80;;;;;;4963038;28;20411;-71
2022/11/15 10:47:31;;;;;;;10.85;7.00;;;25.00;43.50;;;;;;4964518;28;20027;-71
2022/11/15 10:49:59;;;;;;;13.52;7.45;;;24.90;43.30;;;;;;4961722;28;20082;-70
2022/11/15 10:52:26;;;;;;;8.63;6.20;;;24.70;43.40;;;;;;4968149;28;20051;-72
2022/11/15 10:54:58;;;;;;;10.65;7.28;;;24.60;44.40;;;;;;4963317;28;20039;-74
2022/11/15 10:57:27;;;;;;;13.75;7.18;;;25.10;43.10;;;;;;4960761;28;20054;-75
2022/11/15 11:00:02;;;;;;;11.65;6.97;;;25.70;42.50;;;;;;4944303;28;20440;-72
2022/11/15 11:02:30;;;;;;;10.23;7.35;;;24.30;45.00;;;;;;4960382;28;20113;-71
2022/11/15 11:04:56;;;;;;;9.52;6.82;;;22.30;48.60;;;;;;4957387;28;20837;-67
2022/11/15 11:07:28;;;;;;;10.10;7.30;;;20.30;53.10;;;;;;4959602;28;20035;-67
2022/11/15 11:10:27;;;;;;;11.02;6.22;;;18.80;57.00;;;;;;4961465;28;20798;-67
2022/11/15 11:12:53;;;;;;;10.77;6.78;;;17.70;60.80;;;;;;4918678;28;20048;-67
2022/11/15 11:15:19;;;;;;;12.77;8.27;;;17.20;63.30;;;;;;4961527;28;20046;-68
2022/11/15 11:18:03;;;;;;;12.88;6.57;;;16.80;64.30;;;;;;4960950;28;20043;-73
2022/11/15 11:20:51;;;;;;;9.07;6.85;;;16.50;66.40;;;;;;4960597;28;20060;-74
2022/11/15 11:23:53;;;;;;;11.27;6.57;;;16.30;66.70;;;;;;4961588;28;20076;-73
2022/11/15 11:27:12;;;;;;;11.80;7.65;;;16.20;67.90;;;;;;4960978;28;20073;-72
2022/11/15 11:29:45;;;;;;;9.13;6.03;;;16.10;68.00;;;;;;4899471;29;20048;-68
2022/11/15 11:32:23;;;;;;;11.50;6.95;;;15.90;69.30;;;;;;4943790;28;20137;-69
2022/11/15 11:34:52;;;;;;;8.05;5.63;;;15.80;69.50;;;;;;4960489;28;20042;-68
2022/11/15 11:37:26;;;;;;;8.80;6.50;;;15.70;70.10;;;;;;4956523;28;20069;-71
2022/11/15 11:40:17;;;;;;;16.83;6.60;;;15.70;70.80;;;;;;4960523;28;20093;-69
2022/11/15 11:43:02;;;;;;;10.18;6.63;;;15.60;71.30;;;;;;4957332;28;20098;-71
2022/11/15 11:45:34;;;;;;;8.32;5.85;;;15.70;71.70;;;;;;4960688;28;20058;-73
2022/11/15 11:48:23;;;;;;;10.25;6.20;;;15.60;71.60;;;;;;4958671;28;20438;-75
2022/11/15 11:50:49;;;;;;;9.88;6.50;;;15.70;72.40;;;;;;4950411;28;20039;-73
2022/11/15 11:53:27;;;;;;;12.45;6.40;;;15.60;71.40;;;;;;4962012;28;20027;-74
2022/11/15 11:56:17;;;;;;;14.05;6.45;;;15.70;71.70;;;;;;4962223;28;20133;-73
2022/11/15 11:58:45;;;;;;;9.55;6.07;;;15.70;72.10;;;;;;4949045;28;20074;-70
2022/11/15 12:01:34;;;;;;;9.68;6.63;;;15.70;71.80;;;;;;4960279;28;20035;-73
2022/11/15 12:04:23;;;;;;;9.43;6.35;;;15.60;72.60;;;;;;4957804;28;20035;-73
2022/11/15 12:06:51;;;;;;;8.57;6.13;;;15.60;73.20;;;;;;4962687;28;20145;-67
2022/11/15 12:09:32;;;;;;;9.30;6.28;;;15.60;72.60;;;;;;4961325;28;20034;-72
2022/11/15 12:12:11;;;;;;;7.78;5.65;;;15.60;73.20;;;;;;4959963;28;20385;-68
2022/11/15 12:14:42;;;;;;;7.55;5.05;;;15.50;73.50;;;;;;4961044;28;20118;-68
2022/11/15 12:17:12;;;;;;;10.20;5.82;;;15.50;74.00;;;;;;4960523;28;20034;-68
2022/11/15 12:19:39;;;;;;;7.90;5.28;;;15.50;73.70;;;;;;4952616;28;20031;-67
2022/11/15 12:22:13;;;;;;;8.40;5.43;;;15.60;74.00;;;;;;4960856;28;20027;-72
2022/11/15 12:24:45;;;;;;;7.85;5.07;;;15.50;74.20;;;;;;4962224;28;20483;-72
2022/11/15 12:27:42;;;;;;;9.05;5.70;;;15.50;74.80;;;;;;4958367;28;20039;-75
2022/11/15 12:30:22;;;;;;;9.45;5.80;;;15.60;74.80;;;;;;4959414;28;20058;-68
2022/11/15 12:32:56;;;;;;;7.63;5.10;;;15.50;74.20;;;;;;4958755;28;20043;-68
2022/11/15 12:35:36;;;;;;;10.93;5.35;;;15.50;74.90;;;;;;4962539;28;20056;-68
2022/11/15 12:38:03;;;;;;;9.50;5.70;;;15.50;75.40;;;;;;4958756;28;20097;-68
2022/11/15 12:40:33;;;;;;;11.20;5.65;;;15.50;75.70;;;;;;4960704;28;20109;-69
2022/11/15 12:43:02;;;;;;;7.90;5.35;;;15.50;75.50;;;;;;4960405;28;20049;-68
2022/11/15 12:45:33;;;;;;;7.72;5.70;;;15.50;75.60;;;;;;4958414;28;20039;-70
2022/11/15 12:48:19;;;;;;;9.43;5.03;;;15.50;75.40;;;;;;4961654;28;20035;-68
2022/11/15 12:50:52;;;;;;;7.97;5.15;;;15.50;75.90;;;;;;4949222;28;20098;-69
2022/11/15 12:53:24;;;;;;;8.52;5.60;;;15.40;75.90;;;;;;4962128;28;20049;-70
2022/11/15 12:56:12;;;;;;;8.00;5.53;;;15.40;76.10;;;;;;4963746;28;20038;-70
2022/11/15 12:58:46;;;;;;;10.98;5.75;;;15.50;76.20;;;;;;4961566;28;20129;-75
2022/11/15 13:01:47;;;;;;;7.53;5.13;;;15.60;75.90;;;;;;4964355;28;20034;-78
2022/11/15 13:04:21;;;;;;;9.05;5.50;;;15.60;75.60;;;;;;4903010;29;20877;-72
2022/11/15 13:06:58;;;;;;;7.45;5.10;;;15.60;75.90;;;;;;4938325;28;20121;-73
2022/11/15 13:09:33;;;;;;;8.55;5.57;;;15.60;76.10;;;;;;4968506;28;20403;-66
2022/11/15 13:12:20;;;;;;;8.40;5.05;;;15.60;76.00;;;;;;4964640;28;20454;-70
2022/11/15 13:14:51;;;;;;;8.07;5.55;;;15.60;75.70;;;;;;4946506;28;20070;-65
2022/11/15 13:17:20;;;;;;;10.23;5.40;;;15.60;76.40;;;;;;4967327;28;20042;-67
2022/11/15 13:20:07;;;;;;;7.40;5.13;;;15.60;76.60;;;;;;4963362;28;20043;-71
2022/11/15 13:22:51;;;;;;;6.15;4.43;;;15.60;76.10;;;;;;4949012;28;20035;-71
2022/11/15 13:25:31;;;;;;;6.57;4.60;;;15.60;76.40;;;;;;4962040;28;20644;-67
2022/11/15 13:27:57;;;;;;;7.82;4.65;;;15.60;76.70;;;;;;4959821;28;20038;-71
2022/11/15 13:30:26;;;;;;;8.93;4.78;;;15.50;76.80;;;;;;4962090;28;20109;-69
2022/11/15 13:32:53;;;;;;;6.10;4.43;;;15.50;76.80;;;;;;4963089;28;20035;-72
2022/11/15 13:35:24;;;;;;;7.35;4.75;;;15.50;77.00;;;;;;4963718;28;20038;-73
2022/11/15 13:37:52;;;;;;;7.65;4.47;;;15.40;77.00;;;;;;4963034;28;20035;-67
2022/11/15 13:40:32;;;;;;;8.60;5.20;;;15.40;77.40;;;;;;4949501;28;20031;-66
2022/11/15 13:42:58;;;;;;;6.15;4.57;;;15.40;77.80;;;;;;4960179;28;20667;-68
2022/11/15 13:45:24;;;;;;;7.03;4.32;;;15.40;77.80;;;;;;4962472;28;20097;-68
2022/11/15 13:47:58;;;;;;;6.22;4.40;;;15.40;77.40;;;;;;4959685;28;20125;-66
2022/11/15 13:50:31;;;;;;;9.40;4.93;;;15.40;77.50;;;;;;4961616;28;20035;-66
2022/11/15 13:53:01;;;;;;;5.82;3.90;;;15.40;77.60;;;;;;4963325;28;20039;-66
2022/11/15 13:55:28;;;;;;;6.53;4.38;;;15.30;77.90;;;;;;4965275;28;20035;-67
2022/11/15 13:58:00;;;;;;;5.55;4.05;;;15.30;78.10;;;;;;4964975;28;20097;-68
2022/11/15 14:00:29;;;;;;;5.47;4.15;;;15.30;78.20;;;;;;4963026;28;20038;-66
2022/11/15 14:02:57;;;;;;;6.43;4.32;;;15.30;78.60;;;;;;4961819;28;20035;-72
2022/11/15 14:05:24;;;;;;;8.43;4.80;;;15.20;78.80;;;;;;4961698;28;20810;-70
2022/11/15 14:08:03;;;;;;;7.60;4.95;;;15.30;79.00;;;;;;4960644;28;20077;-71
2022/11/15 14:10:33;;;;;;;9.68;5.25;;;15.20;79.10;;;;;;4959995;28;20316;-71